»·PEaware :: N123MT KGEG-KPDX

N123MT :: KGEG-KPDX

FLIGHT INFORMATION

Flight Status: Arrived
Operator: Privately registered:
United States
More flights under this callsign
Pilot: Peter K. (6990)
Aircraft: MOONEY M-20K/M ENCORE BRAVO
(M20T)
More flights by this aircraft type
Origin: KGEG Spokane Intl
United States
Destination: KPDX Portland Intl
United States
More flights between these airports :: More routes between these airports
Route: +GEG V448 YKM V468 BTG
File this flight plan on PilotEdge
Remarks: sim might crash
Altitude:
(Current/Filed)
10,000ft
Speed:
(Current/Filed)
180kts
Departed: 25-Sep-18 02:27 PM
Arrived: 25-Sep-18 03:49 PM
Distance/Time
Traveled:
241nm/1:21
Distance/Time
To Go:
Arrived

Flight Plot

Page will automatically refresh every two minutes.

Flight plan parsing failed; only flown route is shown


Map Options




Map Legend


Flown Route
Filed Route
Departure Airport
Arrival Airport
Navaid (VOR, NDB)
Fix

Horizontal Profiles

Position Reports

Time Latitude Longitude Heading Altitude Ground
Speed
25-Sep-18 13:57 47.626092 -117.534932 86 2375ft 0kts
25-Sep-18 13:58 47.626092 -117.534932 86 2375ft 0kts
25-Sep-18 13:59 47.626092 -117.534931 86 2375ft 0kts
25-Sep-18 14:00 47.626092 -117.534931 86 2375ft 0kts
25-Sep-18 14:01 47.626092 -117.534931 86 2375ft 0kts
25-Sep-18 14:02 47.626092 -117.534931 86 2375ft 0kts
25-Sep-18 14:03 47.626092 -117.534930 86 2375ft 0kts
25-Sep-18 14:04 47.626092 -117.534930 86 2375ft 0kts
25-Sep-18 14:05 47.626092 -117.534930 86 2375ft 0kts
25-Sep-18 14:06 47.626092 -117.534930 86 2375ft 0kts
25-Sep-18 14:07 47.626092 -117.534930 86 2375ft 0kts
25-Sep-18 14:08 47.626092 -117.534929 86 2375ft 0kts
25-Sep-18 14:09 47.626092 -117.534929 86 2375ft 0kts
25-Sep-18 14:10 47.626092 -117.534929 86 2375ft 0kts
25-Sep-18 14:11 47.626092 -117.534929 86 2375ft 0kts
25-Sep-18 14:12 47.626092 -117.534928 86 2375ft 0kts
25-Sep-18 14:13 47.626092 -117.534928 86 2375ft 0kts
25-Sep-18 14:14 47.626092 -117.534928 86 2375ft 0kts
25-Sep-18 14:15 47.626092 -117.534928 86 2375ft 0kts
25-Sep-18 14:16 47.626092 -117.534927 86 2375ft 0kts
25-Sep-18 14:17 47.626092 -117.534927 86 2375ft 0kts
25-Sep-18 14:18 47.626092 -117.534923 86 2375ft 0kts
25-Sep-18 14:19 47.625480 -117.534827 130 2375ft 15kts
25-Sep-18 14:20 47.626910 -117.530337 51 2375ft 25kts
25-Sep-18 14:21 47.632552 -117.520675 86 2375ft 28kts
25-Sep-18 14:22 47.631963 -117.519834 134 2375ft 0kts
25-Sep-18 14:23 47.631963 -117.519834 134 2375ft 0kts
25-Sep-18 14:24 47.631963 -117.519833 134 2375ft 0kts
25-Sep-18 14:25 47.631963 -117.519833 134 2375ft 0kts
25-Sep-18 14:26 47.631958 -117.519826 134 2375ft 0kts
25-Sep-18 14:27 47.631956 -117.519824 134 2375ft 0kts
25-Sep-18 14:28 47.631952 -117.519818 134 2375ft 1kts
25-Sep-18 14:29 47.628268 -117.522773 226 2376ft 73kts
25-Sep-18 14:30 47.603014 -117.555738 219 2719ft 191kts
25-Sep-18 14:31 47.565950 -117.600076 220 4790ft 151kts
25-Sep-18 14:32 47.528998 -117.644162 220 5916ft 195kts
25-Sep-18 14:33 47.483061 -117.697057 220 6643ft 219kts
25-Sep-18 14:34 47.463390 -117.773387 279 7513ft 214kts
25-Sep-18 14:35 47.459277 -117.861836 265 8515ft 217kts
25-Sep-18 14:36 47.452587 -117.949980 267 9729ft 213kts
25-Sep-18 14:37 47.445664 -118.043716 267 10003ft 245kts
25-Sep-18 14:38 47.437948 -118.146248 267 9995ft 244kts
25-Sep-18 14:39 47.430633 -118.242630 267 9998ft 231kts
25-Sep-18 14:40 47.423232 -118.324509 258 10000ft 231kts
25-Sep-18 14:41 47.403767 -118.414983 256 9999ft 231kts
25-Sep-18 14:42 47.384629 -118.505475 256 10000ft 230kts
25-Sep-18 14:43 47.365567 -118.595955 256 10000ft 230kts
25-Sep-18 14:44 47.346452 -118.686406 256 10000ft 230kts
25-Sep-18 14:45 47.327269 -118.776798 255 9999ft 230kts
25-Sep-18 14:46 47.308096 -118.866761 255 9999ft 230kts
25-Sep-18 14:47 47.288836 -118.956744 255 9999ft 230kts
25-Sep-18 14:48 47.269513 -119.046589 255 10000ft 230kts
25-Sep-18 14:49 47.250129 -119.136336 255 9999ft 230kts
25-Sep-18 14:50 47.230699 -119.225920 255 10000ft 229kts
25-Sep-18 14:51 47.210854 -119.315327 250 9999ft 231kts
25-Sep-18 14:52 47.169495 -119.389317 234 10000ft 235kts
25-Sep-18 14:53 47.128604 -119.464079 233 9999ft 234kts
25-Sep-18 14:54 47.092073 -119.529527 233 9999ft 233kts
25-Sep-18 14:55 47.057681 -119.590837 233 9999ft 233kts
25-Sep-18 14:56 47.022977 -119.652536 233 9999ft 233kts
25-Sep-18 14:57 46.981790 -119.725602 233 10000ft 233kts
25-Sep-18 14:58 46.940638 -119.798376 232 9999ft 231kts
25-Sep-18 14:59 46.899562 -119.870806 232 9999ft 230kts
25-Sep-18 15:00 46.858739 -119.942615 232 9999ft 229kts
25-Sep-18 15:01 46.818114 -120.013877 231 9999ft 228kts
25-Sep-18 15:02 46.777382 -120.085188 232 10000ft 229kts
25-Sep-18 15:03 46.736461 -120.156783 232 9999ft 229kts
25-Sep-18 15:04 46.696317 -120.226969 232 10000ft 229kts
25-Sep-18 15:05 46.655653 -120.298024 232 9999ft 228kts
25-Sep-18 15:06 46.614896 -120.369171 232 10000ft 229kts
25-Sep-18 15:07 46.574009 -120.440498 232 9999ft 229kts
25-Sep-18 15:08 46.533132 -120.511744 232 10000ft 229kts
25-Sep-18 15:09 46.492211 -120.583026 232 9999ft 229kts
25-Sep-18 15:10 46.451299 -120.654257 231 9999ft 230kts
25-Sep-18 15:11 46.410296 -120.725625 231 10000ft 230kts
25-Sep-18 15:12 46.369319 -120.796905 231 9999ft 230kts
25-Sep-18 15:13 46.328406 -120.868022 231 9999ft 230kts
25-Sep-18 15:14 46.288561 -120.937232 231 10000ft 230kts
25-Sep-18 15:15 46.251935 -121.000799 231 10000ft 230kts
25-Sep-18 15:16 46.211010 -121.071786 231 9999ft 230kts
25-Sep-18 15:17 46.170058 -121.142773 231 9999ft 229kts
25-Sep-18 15:18 46.129265 -121.213427 231 10000ft 229kts
25-Sep-18 15:19 46.089222 -121.282719 231 10000ft 230kts
25-Sep-18 15:20 46.048402 -121.353303 231 10000ft 230kts
25-Sep-18 15:21 45.990466 -121.360665 160 10002ft 232kts
25-Sep-18 15:22 45.947339 -121.404384 274 10012ft 223kts
25-Sep-18 15:23 45.947746 -121.493122 260 10000ft 226kts
25-Sep-18 15:24 45.932466 -121.581099 257 10000ft 227kts
25-Sep-18 15:25 45.916932 -121.667655 259 9999ft 226kts
25-Sep-18 15:26 45.901247 -121.755196 259 9999ft 226kts
25-Sep-18 15:27 45.885710 -121.841619 260 10000ft 225kts
25-Sep-18 15:28 45.869917 -121.929068 260 10000ft 225kts
25-Sep-18 15:29 45.854096 -122.016240 259 9999ft 226kts
25-Sep-18 15:30 45.838226 -122.103275 259 9956ft 228kts
25-Sep-18 15:31 45.813861 -122.191482 219 8762ft 256kts
25-Sep-18 15:32 45.748009 -122.229574 181 7579ft 257kts
25-Sep-18 15:33 45.688904 -122.178948 142 6399ft 247kts
25-Sep-18 15:34 45.635289 -122.126694 145 5997ft 217kts
25-Sep-18 15:35 45.594089 -122.088153 145 6000ft 153kts
25-Sep-18 15:36 45.556829 -122.054064 155 5999ft 164kts
25-Sep-18 15:37 45.521535 -122.082879 239 6005ft 162kts
25-Sep-18 15:38 45.495505 -122.135260 238 5995ft 158kts
25-Sep-18 15:39 45.473014 -122.186402 265 5758ft 157kts
25-Sep-18 15:40 45.477572 -122.242474 281 4499ft 105kts
25-Sep-18 15:41 45.480870 -122.279814 281 3691ft 89kts
25-Sep-18 15:42 45.485249 -122.316593 301 3709ft 97kts
25-Sep-18 15:43 45.501871 -122.358239 301 2730ft 99kts
25-Sep-18 15:44 45.512296 -122.384825 302 2838ft 78kts
25-Sep-18 15:45 45.525948 -122.419365 301 2428ft 114kts
25-Sep-18 15:46 45.542208 -122.460878 300 1765ft 123kts
25-Sep-18 15:47 45.553804 -122.490576 300 1123ft 60kts
25-Sep-18 15:48 45.562480 -122.512760 300 1008ft 71kts
25-Sep-18 15:49 45.572021 -122.537222 300 538ft 66kts
25-Sep-18 15:50 45.581402 -122.561498 298 230ft 71kts
25-Sep-18 15:51 45.587246 -122.576570 276 33ft 16kts
25-Sep-18 15:52 45.586981 -122.577429 210 33ft 0kts
25-Sep-18 15:53 45.586981 -122.577429 210 33ft 0kts

Navigation Log

Ident Type
Flight plan parsing failed, navigation log unavailable